Search for airport 
image banner adimage banner adimage banner ad
image banner ad

CL64 - Washington Hospital Parking Structure Heliport

Located in Fremont, United States

ICAO - CL64, IATA -

Data provided by Airmate  

General information

Coordinates: N37°33'27" W121°58'41"
Elevation is 128 feet MSL.
Magnetic variation is 16° East
View others Airports in California

Operational data

Special qualification required
Current time UTC:
Current local time:
Weather at : KPAO - Palo Alto ( 16 km )
METAR: KPAO 221347Z VRB04KT 10SM BKN024 17/12 A2993
View NOTAMs / SUP AIP / TFR affecting this airport [VIEW]
Communications frequencies: [VIEW]

Runways:

Airport contact information

Address: Fremont United States

Satellite view of CL64